sensor_id;sensor_type;location;lat;lon;timestamp;pressure;altitude;pressure_sealevel;temperature;humidity
68329;BME280;55182;56.864;60.554;2023-09-07T00:02:07;74525.53;;;-143.60;100.00
68329;BME280;55182;56.864;60.554;2023-09-07T00:04:33;74525.53;;;-143.60;100.00
68329;BME280;55182;56.864;60.554;2023-09-07T00:06:58;74515.47;;;-143.60;100.00
68329;BME280;55182;56.864;60.554;2023-09-07T00:09:23;74523.50;;;-143.60;100.00
68329;BME280;55182;56.864;60.554;2023-09-07T00:11:49;74523.50;;;-143.60;100.00
68329;BME280;55182;56.864;60.554;2023-09-07T00:14:14;74535.56;;;-143.60;100.00
68329;BME280;55182;56.864;60.554;2023-09-07T00:16:40;74543.59;;;-143.60;100.00
68329;BME280;55182;56.864;60.554;2023-09-07T00:19:05;74555.66;;;-143.60;100.00
68329;BME280;55182;56.864;60.554;2023-09-07T00:21:30;74557.66;;;-143.60;100.00
68329;BME280;55182;56.864;60.554;2023-09-07T00:23:56;74555.66;;;-143.60;100.00
68329;BME280;55182;56.864;60.554;2023-09-07T00:26:22;74563.69;;;-143.60;100.00
68329;BME280;55182;56.864;60.554;2023-09-07T00:28:48;74561.69;;;-143.60;100.00
68329;BME280;55182;56.864;60.554;2023-09-07T00:31:13;74559.66;;;-143.60;100.00
68329;BME280;55182;56.864;60.554;2023-09-07T00:33:39;74569.72;;;-143.60;100.00
68329;BME280;55182;56.864;60.554;2023-09-07T00:36:04;74569.72;;;-143.60;100.00
68329;BME280;55182;56.864;60.554;2023-09-07T00:38:30;74575.75;;;-143.60;100.00
68329;BME280;55182;56.864;60.554;2023-09-07T00:40:55;74575.75;;;-143.60;100.00
68329;BME280;55182;56.864;60.554;2023-09-07T00:43:21;74577.75;;;-143.60;100.00
68329;BME280;55182;56.864;60.554;2023-09-07T00:45:46;74581.75;;;-143.60;100.00
68329;BME280;55182;56.864;60.554;2023-09-07T00:48:14;74583.78;;;-143.60;100.00
68329;BME280;55182;56.864;60.554;2023-09-07T00:50:40;74567.72;;;-143.60;100.00
68329;BME280;55182;56.864;60.554;2023-09-07T00:53:06;74573.72;;;-143.60;100.00
68329;BME280;55182;56.864;60.554;2023-09-07T00:55:32;74575.75;;;-143.60;100.00
68329;BME280;55182;56.864;60.554;2023-09-07T00:57:58;74593.81;;;-143.60;100.00
68329;BME280;55182;56.864;60.554;2023-09-07T01:00:24;74599.84;;;-143.60;100.00
68329;BME280;55182;56.864;60.554;2023-09-07T01:02:49;74595.81;;;-143.60;100.00
68329;BME280;55182;56.864;60.554;2023-09-07T01:05:15;74585.78;;;-143.60;100.00
68329;BME280;55182;56.864;60.554;2023-09-07T01:07:43;74583.78;;;-143.60;100.00
68329;BME280;55182;56.864;60.554;2023-09-07T01:10:11;74593.81;;;-143.60;100.00
68329;BME280;55182;56.864;60.554;2023-09-07T01:12:37;74595.81;;;-143.60;100.00
68329;BME280;55182;56.864;60.554;2023-09-07T01:15:02;74585.78;;;-143.60;100.00
68329;BME280;55182;56.864;60.554;2023-09-07T01:17:28;74575.75;;;-143.60;100.00
68329;BME280;55182;56.864;60.554;2023-09-07T01:19:54;74551.63;;;-143.60;100.00
68329;BME280;55182;56.864;60.554;2023-09-07T01:22:22;74527.53;;;-143.60;100.00
68329;BME280;55182;56.864;60.554;2023-09-07T01:24:48;74515.47;;;-143.60;100.00
68329;BME280;55182;56.864;60.554;2023-09-07T01:27:15;74521.50;;;-143.60;100.00
68329;BME280;55182;56.864;60.554;2023-09-07T01:29:41;74527.53;;;-143.60;100.00
68329;BME280;55182;56.864;60.554;2023-09-07T01:32:06;74521.50;;;-143.60;100.00
68329;BME280;55182;56.864;60.554;2023-09-07T01:34:33;74515.47;;;-143.60;100.00
68329;BME280;55182;56.864;60.554;2023-09-07T01:36:59;74521.50;;;-143.60;100.00
68329;BME280;55182;56.864;60.554;2023-09-07T01:39:25;74531.53;;;-143.60;100.00
68329;BME280;55182;56.864;60.554;2023-09-07T01:41:50;74539.59;;;-143.60;100.00
68329;BME280;55182;56.864;60.554;2023-09-07T01:44:16;74539.59;;;-143.60;100.00
68329;BME280;55182;56.864;60.554;2023-09-07T01:46:41;74535.56;;;-143.60;100.00
68329;BME280;55182;56.864;60.554;2023-09-07T01:49:07;74527.53;;;-143.60;100.00
68329;BME280;55182;56.864;60.554;2023-09-07T01:51:34;74523.50;;;-143.60;100.00
68329;BME280;55182;56.864;60.554;2023-09-07T01:53:59;74519.50;;;-143.60;100.00
68329;BME280;55182;56.864;60.554;2023-09-07T01:56:25;74509.44;;;-143.60;100.00
68329;BME280;55182;56.864;60.554;2023-09-07T01:58:50;74511.47;;;-143.60;100.00
68329;BME280;55182;56.864;60.554;2023-09-07T02:01:20;74507.44;;;-143.60;100.00
68329;BME280;55182;56.864;60.554;2023-09-07T02:03:45;74503.44;;;-143.60;100.00
68329;BME280;55182;56.864;60.554;2023-09-07T02:06:11;74501.41;;;-143.60;100.00
68329;BME280;55182;56.864;60.554;2023-09-07T02:08:37;74493.38;;;-143.60;100.00
68329;BME280;55182;56.864;60.554;2023-09-07T02:11:05;74491.38;;;-143.60;100.00
68329;BME280;55182;56.864;60.554;2023-09-07T02:13:30;74487.34;;;-143.60;100.00
68329;BME280;55182;56.864;60.554;2023-09-07T02:15:56;74483.34;;;-143.60;100.00
68329;BME280;55182;56.864;60.554;2023-09-07T02:18:22;74481.34;;;-143.60;100.00
68329;BME280;55182;56.864;60.554;2023-09-07T02:20:47;74465.25;;;-143.60;100.00
68329;BME280;55182;56.864;60.554;2023-09-07T02:23:13;74463.25;;;-143.60;100.00
68329;BME280;55182;56.864;60.554;2023-09-07T02:25:40;74455.22;;;-143.60;100.00
68329;BME280;55182;56.864;60.554;2023-09-07T02:28:05;74447.19;;;-143.60;100.00
68329;BME280;55182;56.864;60.554;2023-09-07T02:30:31;74445.19;;;-143.60;100.00
68329;BME280;55182;56.864;60.554;2023-09-07T02:32:58;74435.13;;;-143.60;100.00
68329;BME280;55182;56.864;60.554;2023-09-07T02:35:26;74431.13;;;-143.60;100.00
68329;BME280;55182;56.864;60.554;2023-09-07T02:37:51;74423.09;;;-143.60;100.00
68329;BME280;55182;56.864;60.554;2023-09-07T02:40:17;74413.03;;;-143.60;100.00
68329;BME280;55182;56.864;60.554;2023-09-07T02:42:43;74407.00;;;-143.60;100.00
68329;BME280;55182;56.864;60.554;2023-09-07T02:45:10;74407.00;;;-143.60;100.00
68329;BME280;55182;56.864;60.554;2023-09-07T02:47:36;74405.00;;;-143.60;100.00
68329;BME280;55182;56.864;60.554;2023-09-07T02:50:02;74398.97;;;-143.60;100.00
68329;BME280;55182;56.864;60.554;2023-09-07T02:52:27;74394.97;;;-143.60;100.00
68329;BME280;55182;56.864;60.554;2023-09-07T02:54:54;74384.91;;;-143.60;100.00
68329;BME280;55182;56.864;60.554;2023-09-07T02:57:19;74378.91;;;-143.60;100.00
68329;BME280;55182;56.864;60.554;2023-09-07T02:59:45;74374.88;;;-143.60;100.00
68329;BME280;55182;56.864;60.554;2023-09-07T03:02:10;74358.81;;;-143.60;100.00
68329;BME280;55182;56.864;60.554;2023-09-07T03:04:36;74350.78;;;-143.60;100.00
68329;BME280;55182;56.864;60.554;2023-09-07T03:07:02;74342.75;;;-143.60;100.00
68329;BME280;55182;56.864;60.554;2023-09-07T03:09:28;74330.69;;;-143.60;100.00
68329;BME280;55182;56.864;60.554;2023-09-07T03:11:54;74318.63;;;-143.60;100.00
68329;BME280;55182;56.864;60.554;2023-09-07T03:14:19;74306.59;;;-143.60;100.00
68329;BME280;55182;56.864;60.554;2023-09-07T03:16:45;74306.59;;;-143.60;100.00
68329;BME280;55182;56.864;60.554;2023-09-07T03:19:10;74290.50;;;-143.60;100.00
68329;BME280;55182;56.864;60.554;2023-09-07T03:21:36;74282.47;;;-143.60;100.00
68329;BME280;55182;56.864;60.554;2023-09-07T03:24:02;74272.44;;;-143.60;100.00
68329;BME280;55182;56.864;60.554;2023-09-07T03:26:27;74258.38;;;-143.60;100.00
68329;BME280;55182;56.864;60.554;2023-09-07T03:28:53;74242.31;;;-143.60;100.00
68329;BME280;55182;56.864;60.554;2023-09-07T03:31:18;74240.31;;;-143.60;100.00
68329;BME280;55182;56.864;60.554;2023-09-07T03:33:45;74232.28;;;-143.60;100.00
68329;BME280;55182;56.864;60.554;2023-09-07T03:36:11;74228.25;;;-143.60;100.00
68329;BME280;55182;56.864;60.554;2023-09-07T03:38:37;74228.25;;;-143.60;100.00
68329;BME280;55182;56.864;60.554;2023-09-07T03:41:02;74230.25;;;-143.60;100.00
68329;BME280;55182;56.864;60.554;2023-09-07T03:43:28;74218.22;;;-143.60;100.00
68329;BME280;55182;56.864;60.554;2023-09-07T03:45:54;74214.19;;;-143.60;100.00
68329;BME280;55182;56.864;60.554;2023-09-07T03:48:19;74216.19;;;-143.60;100.00
68329;BME280;55182;56.864;60.554;2023-09-07T03:50:45;74210.19;;;-143.60;100.00
68329;BME280;55182;56.864;60.554;2023-09-07T03:53:10;74206.16;;;-143.60;100.00
68329;BME280;55182;56.864;60.554;2023-09-07T03:55:40;74198.13;;;-143.60;100.00
68329;BME280;55182;56.864;60.554;2023-09-07T03:58:06;74186.06;;;-143.60;100.00
68329;BME280;55182;56.864;60.554;2023-09-07T04:00:31;74182.06;;;-143.60;100.00
68329;BME280;55182;56.864;60.554;2023-09-07T04:02:57;74166.00;;;-143.60;100.00
68329;BME280;55182;56.864;60.554;2023-09-07T04:05:22;74141.88;;;-143.60;100.00
68329;BME280;55182;56.864;60.554;2023-09-07T04:07:50;74133.84;;;-143.60;100.00
68329;BME280;55182;56.864;60.554;2023-09-07T04:10:15;74125.81;;;-143.60;100.00
68329;BME280;55182;56.864;60.554;2023-09-07T04:12:40;74117.78;;;-143.60;100.00
68329;BME280;55182;56.864;60.554;2023-09-07T04:15:06;74111.75;;;-143.60;100.00
68329;BME280;55182;56.864;60.554;2023-09-07T04:17:32;74101.72;;;-143.60;100.00
68329;BME280;55182;56.864;60.554;2023-09-07T04:19:57;74093.69;;;-143.60;100.00
68329;BME280;55182;56.864;60.554;2023-09-07T04:22:23;74073.59;;;-143.60;100.00
68329;BME280;55182;56.864;60.554;2023-09-07T04:24:48;74053.50;;;-143.60;100.00
68329;BME280;55182;56.864;60.554;2023-09-07T04:27:14;74025.41;;;-143.60;100.00
68329;BME280;55182;56.864;60.554;2023-09-07T04:29:39;73997.28;;;-143.60;99.38
68329;BME280;55182;56.864;60.554;2023-09-07T04:32:05;73989.25;;;-143.60;98.68
68329;BME280;55182;56.864;60.554;2023-09-07T04:34:31;73969.16;;;-143.60;96.79
68329;BME280;55182;56.864;60.554;2023-09-07T04:36:56;73961.13;;;-143.60;95.29
68329;BME280;55182;56.864;60.554;2023-09-07T04:39:21;73924.97;;;-143.60;92.91
68329;BME280;55182;56.864;60.554;2023-09-07T04:41:47;73902.88;;;-143.60;91.59
68329;BME280;55182;56.864;60.554;2023-09-07T04:44:13;73880.78;;;-143.60;90.15
68329;BME280;55182;56.864;60.554;2023-09-07T04:46:39;73868.75;;;-143.60;91.35
68329;BME280;55182;56.864;60.554;2023-09-07T04:49:05;73854.69;;;-143.60;90.28
68329;BME280;55182;56.864;60.554;2023-09-07T04:51:30;73836.59;;;-143.60;89.00
68329;BME280;55182;56.864;60.554;2023-09-07T04:53:56;73816.53;;;-143.60;87.96
68329;BME280;55182;56.864;60.554;2023-09-07T04:56:21;73804.47;;;-143.60;87.99
68329;BME280;55182;56.864;60.554;2023-09-07T04:58:47;73786.41;;;-143.60;87.23
68329;BME280;55182;56.864;60.554;2023-09-07T05:01:12;73768.31;;;-143.60;86.61
68329;BME280;55182;56.864;60.554;2023-09-07T05:03:39;73748.25;;;-143.60;84.54
68329;BME280;55182;56.864;60.554;2023-09-07T05:06:06;73718.13;;;-143.60;82.35
68329;BME280;55182;56.864;60.554;2023-09-07T05:08:31;73688.00;;;-143.60;81.62
68329;BME280;55182;56.864;60.554;2023-09-07T05:10:58;73675.94;;;-143.60;81.44
68329;BME280;55182;56.864;60.554;2023-09-07T05:13:24;73643.81;;;-143.60;80.58
68329;BME280;55182;56.864;60.554;2023-09-07T05:15:50;73623.72;;;-143.60;79.96
68329;BME280;55182;56.864;60.554;2023-09-07T05:18:17;73601.63;;;-143.60;80.83
68329;BME280;55182;56.864;60.554;2023-09-07T05:20:43;73587.59;;;-143.60;79.63
68329;BME280;55182;56.864;60.554;2023-09-07T05:23:08;73571.53;;;-143.60;78.49
68329;BME280;55182;56.864;60.554;2023-09-07T05:25:42;73561.47;;;-143.60;77.56
68329;BME280;55182;56.864;60.554;2023-09-07T05:28:07;73545.41;;;-143.60;77.26
68329;BME280;55182;56.864;60.554;2023-09-07T05:30:33;73539.38;;;-143.60;78.04
68329;BME280;55182;56.864;60.554;2023-09-07T05:32:58;73523.31;;;-143.60;77.99
68329;BME280;55182;56.864;60.554;2023-09-07T05:35:24;73511.28;;;-143.60;76.83
68329;BME280;55182;56.864;60.554;2023-09-07T05:37:49;73495.22;;;-143.60;76.70
68329;BME280;55182;56.864;60.554;2023-09-07T05:40:15;73479.13;;;-143.60;76.12
68329;BME280;55182;56.864;60.554;2023-09-07T05:42:41;73463.06;;;-143.60;75.15
68329;BME280;55182;56.864;60.554;2023-09-07T05:45:07;73451.03;;;-143.60;74.30
68329;BME280;55182;56.864;60.554;2023-09-07T05:47:33;73428.94;;;-143.60;73.38
68329;BME280;55182;56.864;60.554;2023-09-07T05:49:58;73414.88;;;-143.60;74.08
68329;BME280;55182;56.864;60.554;2023-09-07T05:52:24;73390.78;;;-143.60;73.69
68329;BME280;55182;56.864;60.554;2023-09-07T05:54:49;73378.75;;;-143.60;73.11
68329;BME280;55182;56.864;60.554;2023-09-07T05:57:15;73362.66;;;-143.60;74.29
68329;BME280;55182;56.864;60.554;2023-09-07T05:59:40;73346.59;;;-143.60;74.56
68329;BME280;55182;56.864;60.554;2023-09-07T06:02:06;73322.50;;;-143.60;71.16
68329;BME280;55182;56.864;60.554;2023-09-07T06:04:31;73286.38;;;-143.60;67.45
68329;BME280;55182;56.864;60.554;2023-09-07T06:06:58;73260.25;;;-143.60;66.31
68329;BME280;55182;56.864;60.554;2023-09-07T06:09:24;73234.16;;;-143.60;65.74
68329;BME280;55182;56.864;60.554;2023-09-07T06:11:49;73206.03;;;-143.60;65.39
68329;BME280;55182;56.864;60.554;2023-09-07T06:14:16;73185.97;;;-143.60;63.36
68329;BME280;55182;56.864;60.554;2023-09-07T06:16:41;73167.88;;;-143.60;63.26
68329;BME280;55182;56.864;60.554;2023-09-07T06:19:07;73157.84;;;-143.60;64.17
68329;BME280;55182;56.864;60.554;2023-09-07T06:21:33;73149.81;;;-143.60;64.19
68329;BME280;55182;56.864;60.554;2023-09-07T06:23:58;73135.75;;;-143.60;63.44
68329;BME280;55182;56.864;60.554;2023-09-07T06:26:24;73133.75;;;-143.60;63.76
68329;BME280;55182;56.864;60.554;2023-09-07T06:28:49;73125.72;;;-143.60;64.16
68329;BME280;55182;56.864;60.554;2023-09-07T06:31:15;73109.66;;;-143.60;63.20
68329;BME280;55182;56.864;60.554;2023-09-07T06:33:40;73101.63;;;-143.60;63.75
68329;BME280;55182;56.864;60.554;2023-09-07T06:36:06;73097.63;;;-143.60;63.39
68329;BME280;55182;56.864;60.554;2023-09-07T06:38:32;73091.59;;;-143.60;62.70
68329;BME280;55182;56.864;60.554;2023-09-07T06:40:58;73091.59;;;-143.60;62.44
68329;BME280;55182;56.864;60.554;2023-09-07T06:43:24;73081.56;;;-143.60;63.62
68329;BME280;55182;56.864;60.554;2023-09-07T06:45:51;73073.50;;;-143.60;62.91
68329;BME280;55182;56.864;60.554;2023-09-07T06:48:17;73069.50;;;-143.60;62.03
68329;BME280;55182;56.864;60.554;2023-09-07T06:50:42;73059.47;;;-143.60;62.92
68329;BME280;55182;56.864;60.554;2023-09-07T06:53:08;73045.41;;;-143.60;62.06
68329;BME280;55182;56.864;60.554;2023-09-07T06:55:34;73045.41;;;-143.60;62.25
68329;BME280;55182;56.864;60.554;2023-09-07T06:57:59;73029.34;;;-143.60;61.80
68329;BME280;55182;56.864;60.554;2023-09-07T07:00:25;73013.28;;;-143.60;60.93
68329;BME280;55182;56.864;60.554;2023-09-07T07:02:50;73005.25;;;-143.60;60.81
68329;BME280;55182;56.864;60.554;2023-09-07T07:05:16;73001.22;;;-143.60;60.71
68329;BME280;55182;56.864;60.554;2023-09-07T07:07:42;72993.19;;;-143.60;62.32
68329;BME280;55182;56.864;60.554;2023-09-07T07:10:07;72981.16;;;-143.60;58.77
68329;BME280;55182;56.864;60.554;2023-09-07T07:12:33;72963.09;;;-143.60;56.84
68329;BME280;55182;56.864;60.554;2023-09-07T07:14:58;72957.06;;;-143.60;56.98
68329;BME280;55182;56.864;60.554;2023-09-07T07:17:24;72932.97;;;-143.60;55.92
68329;BME280;55182;56.864;60.554;2023-09-07T07:19:49;72912.88;;;-143.60;54.59
68329;BME280;55182;56.864;60.554;2023-09-07T07:22:14;72906.88;;;-143.60;53.99
68329;BME280;55182;56.864;60.554;2023-09-07T07:24:40;72902.84;;;-143.60;53.97
68329;BME280;55182;56.864;60.554;2023-09-07T07:27:06;72884.78;;;-143.60;52.95
68329;BME280;55182;56.864;60.554;2023-09-07T07:29:34;72878.75;;;-143.60;53.52
68329;BME280;55182;56.864;60.554;2023-09-07T07:32:00;72862.69;;;-143.60;54.29
68329;BME280;55182;56.864;60.554;2023-09-07T07:34:26;72864.69;;;-143.60;52.72
68329;BME280;55182;56.864;60.554;2023-09-07T07:36:51;72852.66;;;-143.60;52.50
68329;BME280;55182;56.864;60.554;2023-09-07T07:39:17;72846.63;;;-143.60;52.73
68329;BME280;55182;56.864;60.554;2023-09-07T07:41:43;72832.56;;;-143.60;50.98
68329;BME280;55182;56.864;60.554;2023-09-07T07:44:08;72826.56;;;-143.60;51.55
68329;BME280;55182;56.864;60.554;2023-09-07T07:46:34;72820.53;;;-143.60;52.82
68329;BME280;55182;56.864;60.554;2023-09-07T07:49:00;72820.53;;;-143.60;52.80
68329;BME280;55182;56.864;60.554;2023-09-07T07:51:26;72806.47;;;-143.60;52.96
68329;BME280;55182;56.864;60.554;2023-09-07T07:53:51;72798.44;;;-143.60;51.81
68329;BME280;55182;56.864;60.554;2023-09-07T07:56:18;72786.38;;;-143.60;50.87
68329;BME280;55182;56.864;60.554;2023-09-07T07:58:46;72776.34;;;-143.60;50.44
68329;BME280;55182;56.864;60.554;2023-09-07T08:01:17;72768.31;;;-143.60;50.89
68329;BME280;55182;56.864;60.554;2023-09-07T08:03:43;72756.28;;;-143.60;50.34
68329;BME280;55182;56.864;60.554;2023-09-07T08:06:09;72752.25;;;-143.60;50.60
68329;BME280;55182;56.864;60.554;2023-09-07T08:08:35;72740.22;;;-143.60;50.74
68329;BME280;55182;56.864;60.554;2023-09-07T08:11:00;72740.22;;;-143.60;48.43
68329;BME280;55182;56.864;60.554;2023-09-07T08:13:26;72736.19;;;-143.60;49.12
68329;BME280;55182;56.864;60.554;2023-09-07T08:15:51;72724.16;;;-143.60;47.00
68329;BME280;55182;56.864;60.554;2023-09-07T08:18:17;72706.09;;;-143.60;46.48
68329;BME280;55182;56.864;60.554;2023-09-07T08:20:42;72712.09;;;-143.60;48.09
68329;BME280;55182;56.864;60.554;2023-09-07T08:23:08;72700.06;;;-143.60;47.80
68329;BME280;55182;56.864;60.554;2023-09-07T08:25:33;72700.06;;;-143.60;47.03
68329;BME280;55182;56.864;60.554;2023-09-07T08:27:59;72698.06;;;-143.60;47.15
68329;BME280;55182;56.864;60.554;2023-09-07T08:30:24;72692.03;;;-143.60;47.67
68329;BME280;55182;56.864;60.554;2023-09-07T08:32:50;72692.03;;;-143.60;47.56
68329;BME280;55182;56.864;60.554;2023-09-07T08:35:15;72690.03;;;-143.60;48.62
68329;BME280;55182;56.864;60.554;2023-09-07T08:37:41;72679.97;;;-143.60;48.03
68329;BME280;55182;56.864;60.554;2023-09-07T08:40:07;72671.94;;;-143.60;48.65
68329;BME280;55182;56.864;60.554;2023-09-07T08:42:35;72663.91;;;-143.60;49.56
68329;BME280;55182;56.864;60.554;2023-09-07T08:45:01;72655.88;;;-143.60;49.39
68329;BME280;55182;56.864;60.554;2023-09-07T08:47:27;72647.84;;;-143.60;50.55
68329;BME280;55182;56.864;60.554;2023-09-07T08:49:53;72647.84;;;-143.60;50.14
68329;BME280;55182;56.864;60.554;2023-09-07T08:52:19;72631.78;;;-143.60;48.62
68329;BME280;55182;56.864;60.554;2023-09-07T08:54:45;72619.75;;;-143.60;47.52
68329;BME280;55182;56.864;60.554;2023-09-07T08:57:11;72607.69;;;-143.60;47.70
68329;BME280;55182;56.864;60.554;2023-09-07T08:59:38;72607.69;;;-143.60;48.68
68329;BME280;55182;56.864;60.554;2023-09-07T09:02:06;72587.63;;;-143.60;49.72
68329;BME280;55182;56.864;60.554;2023-09-07T09:04:32;72577.59;;;-143.60;50.03
68329;BME280;55182;56.864;60.554;2023-09-07T09:06:58;72567.53;;;-143.60;47.86
68329;BME280;55182;56.864;60.554;2023-09-07T09:09:24;72559.53;;;-143.60;46.61
68329;BME280;55182;56.864;60.554;2023-09-07T09:11:49;72551.50;;;-143.60;46.33
68329;BME280;55182;56.864;60.554;2023-09-07T09:14:18;72543.47;;;-143.60;46.00
68329;BME280;55182;56.864;60.554;2023-09-07T09:16:51;72531.41;;;-143.60;45.78
68329;BME280;55182;56.864;60.554;2023-09-07T09:19:16;72525.38;;;-143.60;44.86
68329;BME280;55182;56.864;60.554;2023-09-07T09:21:42;72519.38;;;-143.60;45.53
68329;BME280;55182;56.864;60.554;2023-09-07T09:24:10;72491.25;;;-143.60;45.24
68329;BME280;55182;56.864;60.554;2023-09-07T09:26:37;72503.31;;;-143.60;45.00
68329;BME280;55182;56.864;60.554;2023-09-07T09:29:02;72493.25;;;-143.60;45.35
68329;BME280;55182;56.864;60.554;2023-09-07T09:31:29;72475.19;;;-143.60;44.89
68329;BME280;55182;56.864;60.554;2023-09-07T09:33:55;72471.19;;;-143.60;45.29
68329;BME280;55182;56.864;60.554;2023-09-07T09:36:20;72463.16;;;-143.60;44.73
68329;BME280;55182;56.864;60.554;2023-09-07T09:38:49;72455.13;;;-143.60;46.34
68329;BME280;55182;56.864;60.554;2023-09-07T09:41:19;72447.09;;;-143.60;46.37
68329;BME280;55182;56.864;60.554;2023-09-07T09:43:48;72433.03;;;-143.60;46.06
68329;BME280;55182;56.864;60.554;2023-09-07T09:46:13;72447.09;;;-143.60;45.10
68329;BME280;55182;56.864;60.554;2023-09-07T09:48:39;72439.06;;;-143.60;45.19
68329;BME280;55182;56.864;60.554;2023-09-07T09:51:05;72435.03;;;-143.60;46.10
68329;BME280;55182;56.864;60.554;2023-09-07T09:53:30;72443.06;;;-143.60;45.76
68329;BME280;55182;56.864;60.554;2023-09-07T09:55:56;72451.09;;;-143.60;45.16
68329;BME280;55182;56.864;60.554;2023-09-07T09:58:22;72471.19;;;-143.60;45.83
68329;BME280;55182;56.864;60.554;2023-09-07T10:00:48;72469.16;;;-143.60;47.31
68329;BME280;55182;56.864;60.554;2023-09-07T10:03:16;72487.25;;;-143.60;46.50
68329;BME280;55182;56.864;60.554;2023-09-07T10:05:44;72499.28;;;-143.60;46.46
68329;BME280;55182;56.864;60.554;2023-09-07T10:08:11;72513.34;;;-143.60;46.52
68329;BME280;55182;56.864;60.554;2023-09-07T10:10:37;72523.38;;;-143.60;46.21
68329;BME280;55182;56.864;60.554;2023-09-07T10:13:03;72539.44;;;-143.60;46.79
68329;BME280;55182;56.864;60.554;2023-09-07T10:15:28;72555.50;;;-143.60;47.55
68329;BME280;55182;56.864;60.554;2023-09-07T10:20:34;72575.59;;;-143.60;48.87
68329;BME280;55182;56.864;60.554;2023-09-07T10:23:03;72571.56;;;-143.60;48.03
68329;BME280;55182;56.864;60.554;2023-09-07T10:25:30;72567.53;;;-143.60;48.71
68329;BME280;55182;56.864;60.554;2023-09-07T10:27:55;72571.56;;;-143.60;48.30
68329;BME280;55182;56.864;60.554;2023-09-07T10:32:49;72571.56;;;-143.60;48.28
68329;BME280;55182;56.864;60.554;2023-09-07T10:35:16;72577.59;;;-143.60;49.51
68329;BME280;55182;56.864;60.554;2023-09-07T10:37:46;72579.59;;;-143.60;49.31
68329;BME280;55182;56.864;60.554;2023-09-07T10:40:11;72573.56;;;-143.60;48.59
68329;BME280;55182;56.864;60.554;2023-09-07T10:42:37;72579.59;;;-143.60;48.36
68329;BME280;55182;56.864;60.554;2023-09-07T10:45:12;72575.59;;;-143.60;49.11
68329;BME280;55182;56.864;60.554;2023-09-07T10:47:42;72579.59;;;-143.60;49.32
68329;BME280;55182;56.864;60.554;2023-09-07T10:50:08;72575.59;;;-143.60;49.80
68329;BME280;55182;56.864;60.554;2023-09-07T10:52:35;72569.56;;;-143.60;49.04
68329;BME280;55182;56.864;60.554;2023-09-07T10:55:01;72575.59;;;-143.60;49.21
68329;BME280;55182;56.864;60.554;2023-09-07T10:57:27;72579.59;;;-143.60;49.13
68329;BME280;55182;56.864;60.554;2023-09-07T10:59:53;72579.59;;;-143.60;50.54
68329;BME280;55182;56.864;60.554;2023-09-07T11:02:18;72579.59;;;-143.60;50.66
68329;BME280;55182;56.864;60.554;2023-09-07T11:04:44;72579.59;;;-143.60;50.17
68329;BME280;55182;56.864;60.554;2023-09-07T11:07:10;72583.59;;;-143.60;49.78
68329;BME280;55182;56.864;60.554;2023-09-07T11:09:39;72575.59;;;-143.60;49.37
68329;BME280;55182;56.864;60.554;2023-09-07T11:12:05;72577.59;;;-143.60;49.99
68329;BME280;55182;56.864;60.554;2023-09-07T11:14:31;72577.59;;;-143.60;49.39
68329;BME280;55182;56.864;60.554;2023-09-07T11:16:57;72579.59;;;-143.60;50.90
68329;BME280;55182;56.864;60.554;2023-09-07T11:19:22;72579.59;;;-143.60;49.65
68329;BME280;55182;56.864;60.554;2023-09-07T11:21:48;72577.59;;;-143.60;50.21
68329;BME280;55182;56.864;60.554;2023-09-07T11:24:14;72583.59;;;-143.60;49.39
68329;BME280;55182;56.864;60.554;2023-09-07T11:26:41;72575.59;;;-143.60;48.80
68329;BME280;55182;56.864;60.554;2023-09-07T11:29:07;72579.59;;;-143.60;48.92
68329;BME280;55182;56.864;60.554;2023-09-07T11:31:33;72575.59;;;-143.60;49.08
68329;BME280;55182;56.864;60.554;2023-09-07T11:33:58;72575.59;;;-143.60;49.11
68329;BME280;55182;56.864;60.554;2023-09-07T11:36:24;72577.59;;;-143.60;49.24
68329;BME280;55182;56.864;60.554;2023-09-07T11:38:49;72575.59;;;-143.60;48.62
68329;BME280;55182;56.864;60.554;2023-09-07T11:41:16;72579.59;;;-143.60;49.18
68329;BME280;55182;56.864;60.554;2023-09-07T11:43:45;72577.59;;;-143.60;49.47
68329;BME280;55182;56.864;60.554;2023-09-07T11:46:11;72579.59;;;-143.60;49.11
68329;BME280;55182;56.864;60.554;2023-09-07T11:48:36;72579.59;;;-143.60;49.40
68329;BME280;55182;56.864;60.554;2023-09-07T11:51:02;72581.59;;;-143.60;49.49
68329;BME280;55182;56.864;60.554;2023-09-07T11:53:27;72567.53;;;-143.60;49.18
68329;BME280;55182;56.864;60.554;2023-09-07T11:55:53;72573.56;;;-143.60;49.43
68329;BME280;55182;56.864;60.554;2023-09-07T11:58:18;72563.53;;;-143.60;49.08
68329;BME280;55182;56.864;60.554;2023-09-07T12:00:44;72555.50;;;-143.60;49.17
68329;BME280;55182;56.864;60.554;2023-09-07T12:03:09;72555.50;;;-143.60;48.73
68329;BME280;55182;56.864;60.554;2023-09-07T12:05:34;72547.47;;;-143.60;48.27
68329;BME280;55182;56.864;60.554;2023-09-07T12:08:00;72519.38;;;-143.60;47.51
68329;BME280;55182;56.864;60.554;2023-09-07T12:10:25;72455.13;;;-143.60;46.63
68329;BME280;55182;56.864;60.554;2023-09-07T12:12:51;72382.84;;;-143.60;45.56
68329;BME280;55182;56.864;60.554;2023-09-07T12:15:17;72326.63;;;-143.60;43.84
68329;BME280;55182;56.864;60.554;2023-09-07T12:17:42;72298.53;;;-143.60;43.75
68329;BME280;55182;56.864;60.554;2023-09-07T12:20:08;72290.50;;;-143.60;43.47
68329;BME280;55182;56.864;60.554;2023-09-07T12:22:34;72302.53;;;-143.60;43.46
68329;BME280;55182;56.864;60.554;2023-09-07T12:24:59;72280.47;;;-143.60;44.00